Saint Louis, Missouri
Traffic Map
Current Weather Conditions
Saint Louis, Missouri
Clear
Clear

Feels Like: 7°
Wind Chill: Ceiling: Unl
Heat Index: Visibility: 10mi
Dew Point: Wind: 10mph
Humidity: 56% Direction: 170° (S)
Pressure: 30in Gusts: 20mph
Raw Report DataKCPS 281953Z 17009G17KT 10SM CLR 09/01 A3000 RMK AO2 SLP162 T00940011
Traffic Incident Summary
Active as of:
Severity:
Category:
InformationThere was an issue retrieving the traffic information for this location. Please try a different location or try again shortly.
Advertisements
Track Severe Weather on mobile